createdAt,value
2023-06-20T00:00:51.511Z,19.35
2023-06-20T00:03:20.320Z,19.36
2023-06-20T00:05:48.387Z,19.36
2023-06-20T00:08:19.069Z,19.36
2023-06-20T00:10:47.537Z,19.34
2023-06-20T00:13:19.225Z,19.36
2023-06-20T00:15:47.886Z,19.38
2023-06-20T00:18:18.894Z,19.35
2023-06-20T00:20:51.367Z,19.31
2023-06-20T00:23:26.464Z,19.32
2023-06-20T00:26:01.454Z,19.35
2023-06-20T00:28:31.781Z,19.32
2023-06-20T00:31:00.581Z,19.34
2023-06-20T00:33:28.906Z,19.32
2023-06-20T00:35:58.944Z,19.29
2023-06-20T00:38:30.608Z,19.25
2023-06-20T00:40:59.024Z,19.24
2023-06-20T00:43:28.153Z,19.27
2023-06-20T00:45:59.032Z,19.21
2023-06-20T00:48:29.472Z,19.24
2023-06-20T00:51:03.372Z,19.25
2023-06-20T00:53:32.057Z,19.25
2023-06-20T00:56:01.752Z,19.32
2023-06-20T00:58:33.195Z,19.36
2023-06-20T01:01:06.742Z,19.38
2023-06-20T01:03:39.240Z,19.32
2023-06-20T01:06:50.564Z,19.24
2023-06-20T01:09:31.220Z,19.18
2023-06-20T01:12:08.472Z,19.18
2023-06-20T01:15:00.426Z,19.15
2023-06-20T01:17:52.404Z,19.08
2023-06-20T01:20:26.421Z,19.11
2023-06-20T01:23:03.542Z,19.06
2023-06-20T01:25:55.944Z,19.03
2023-06-20T01:28:29.845Z,19.01
2023-06-20T01:31:13.996Z,19.01
2023-06-20T01:33:58.686Z,18.99
2023-06-20T01:36:32.624Z,18.96
2023-06-20T01:39:07.870Z,19.00
2023-06-20T01:41:39.456Z,18.97
2023-06-20T01:44:10.527Z,19.00
2023-06-20T01:46:38.611Z,18.99
2023-06-20T01:49:08.689Z,19.01
2023-06-20T01:51:36.948Z,19.01
2023-06-20T01:54:05.969Z,18.96
2023-06-20T01:56:35.111Z,18.97
2023-06-20T01:59:04.664Z,18.99
2023-06-20T02:01:33.965Z,18.96
2023-06-20T02:04:03.612Z,18.99
2023-06-20T02:06:32.132Z,19.00
2023-06-20T02:09:01.138Z,18.96
2023-06-20T02:11:29.944Z,18.94
2023-06-20T02:14:00.521Z,18.94
2023-06-20T02:16:29.976Z,18.96
2023-06-20T02:18:58.173Z,19.00
2023-06-20T02:21:29.460Z,18.96
2023-06-20T02:23:57.586Z,18.93
2023-06-20T02:26:30.772Z,18.93
2023-06-20T02:29:05.352Z,18.97
2023-06-20T02:31:37.571Z,18.93
2023-06-20T02:34:08.479Z,18.91
2023-06-20T02:36:38.277Z,18.90
2023-06-20T02:39:06.268Z,18.86
2023-06-20T02:41:34.423Z,18.87
2023-06-20T02:44:02.391Z,18.87
2023-06-20T02:47:07.592Z,18.80
2023-06-20T02:49:48.043Z,18.80
2023-06-20T02:52:33.400Z,18.83
2023-06-20T02:55:36.517Z,18.83
2023-06-20T02:58:13.792Z,18.83
2023-06-20T03:00:53.502Z,18.84
2023-06-20T03:03:33.438Z,18.87
2023-06-20T03:06:03.014Z,18.86
2023-06-20T03:08:32.408Z,18.80
2023-06-20T03:11:01.878Z,18.79
2023-06-20T03:13:30.142Z,18.76
2023-06-20T03:15:59.064Z,18.77
2023-06-20T03:18:30.430Z,18.77
2023-06-20T03:20:58.830Z,18.77
2023-06-20T03:23:27.352Z,18.80
2023-06-20T03:25:56.926Z,18.76
2023-06-20T03:28:25.799Z,18.80
2023-06-20T03:30:55.931Z,18.80
2023-06-20T03:33:26.453Z,18.80
2023-06-20T03:35:55.329Z,18.82
2023-06-20T03:38:23.302Z,18.79
2023-06-20T03:40:52.980Z,18.77
2023-06-20T03:43:21.433Z,18.76
2023-06-20T03:45:49.501Z,18.76
2023-06-20T03:48:20.367Z,18.74
2023-06-20T03:50:48.765Z,18.76
2023-06-20T03:53:18.734Z,18.80
2023-06-20T03:55:46.717Z,18.82
2023-06-20T03:58:15.315Z,18.83
2023-06-20T04:00:45.363Z,18.86
2023-06-20T04:03:13.482Z,18.94
2023-06-20T04:05:41.546Z,19.01
2023-06-20T04:08:11.366Z,19.03
2023-06-20T04:10:39.552Z,19.06
2023-06-20T04:13:07.573Z,19.07
2023-06-20T04:15:35.750Z,19.11
2023-06-20T04:18:04.102Z,19.12
2023-06-20T04:20:32.194Z,19.17
2023-06-20T04:23:00.732Z,19.15
2023-06-20T04:25:29.046Z,19.21
2023-06-20T04:27:58.110Z,19.25
2023-06-20T04:30:32.985Z,19.28
2023-06-20T04:33:02.125Z,19.29
2023-06-20T04:35:33.093Z,19.35
2023-06-20T04:38:04.441Z,19.39
2023-06-20T04:40:32.414Z,19.46
2023-06-20T04:43:03.171Z,19.51
2023-06-20T04:45:33.076Z,19.48
2023-06-20T04:48:03.541Z,19.59
2023-06-20T04:50:32.037Z,19.67
2023-06-20T04:53:00.276Z,19.66
2023-06-20T04:55:28.869Z,19.61
2023-06-20T04:58:06.331Z,19.59
2023-06-20T05:00:38.638Z,19.55
2023-06-20T05:03:10.724Z,19.62
2023-06-20T05:05:41.037Z,19.65
2023-06-20T05:08:10.409Z,19.66
2023-06-20T05:10:38.684Z,19.73
2023-06-20T05:13:06.905Z,19.79
2023-06-20T05:15:35.039Z,19.80
2023-06-20T05:18:03.241Z,19.84
2023-06-20T05:20:31.252Z,19.90
2023-06-20T05:23:03.053Z,19.97
2023-06-20T05:25:31.331Z,20.10
2023-06-20T05:27:59.408Z,20.27
2023-06-20T05:30:27.859Z,20.35
2023-06-20T05:32:56.636Z,20.46
2023-06-20T05:35:24.695Z,20.48
2023-06-20T05:37:53.010Z,20.51
2023-06-20T05:40:20.890Z,20.65
2023-06-20T05:42:49.000Z,20.63
2023-06-20T05:45:17.081Z,20.76
2023-06-20T05:47:47.674Z,20.82
2023-06-20T05:50:15.931Z,20.82
2023-06-20T05:52:44.054Z,20.82
2023-06-20T05:55:12.283Z,20.75
2023-06-20T05:57:40.342Z,20.69
2023-06-20T06:00:13.706Z,20.73
2023-06-20T06:02:48.116Z,20.77
2023-06-20T06:05:16.433Z,20.80
2023-06-20T06:07:47.241Z,20.66
2023-06-20T06:10:15.235Z,20.65
2023-06-20T06:12:46.445Z,20.49
2023-06-20T06:15:14.622Z,20.49
2023-06-20T06:17:43.843Z,20.45
2023-06-20T06:20:18.771Z,20.46
2023-06-20T06:22:47.564Z,20.53
2023-06-20T06:25:15.785Z,20.65
2023-06-20T06:27:44.094Z,20.71
2023-06-20T06:30:12.273Z,20.73
2023-06-20T06:32:40.616Z,20.91
2023-06-20T06:35:11.192Z,21.01
2023-06-20T06:37:41.471Z,21.15
2023-06-20T06:40:10.736Z,21.10
2023-06-20T06:42:39.694Z,21.08
2023-06-20T06:45:09.776Z,21.08
2023-06-20T06:47:37.930Z,21.10
2023-06-20T06:50:07.396Z,21.18
2023-06-20T06:52:38.157Z,21.45
2023-06-20T06:55:06.605Z,21.65
2023-06-20T06:57:34.608Z,22.28
2023-06-20T07:00:02.595Z,22.99
2023-06-20T07:02:30.635Z,23.69
2023-06-20T07:04:58.840Z,24.44
2023-06-20T07:07:29.070Z,24.72
2023-06-20T07:09:59.712Z,24.93
2023-06-20T07:12:27.729Z,24.65
2023-06-20T07:14:57.546Z,24.33
2023-06-20T07:17:26.440Z,24.67
2023-06-20T07:19:54.927Z,25.23
2023-06-20T07:22:23.352Z,25.55
2023-06-20T07:24:53.898Z,26.06
2023-06-20T07:27:23.522Z,27.36
2023-06-20T07:29:51.518Z,27.94
2023-06-20T07:32:20.144Z,28.57
2023-06-20T07:34:49.708Z,28.84
2023-06-20T07:37:18.004Z,29.32
2023-06-20T07:39:55.242Z,28.91
2023-06-20T07:42:25.785Z,28.99
2023-06-20T07:44:53.976Z,28.91
2023-06-20T07:47:22.276Z,28.29
2023-06-20T07:49:52.167Z,28.19
2023-06-20T07:52:20.219Z,27.57
2023-06-20T07:54:48.346Z,27.16
2023-06-20T07:57:16.478Z,26.91
2023-06-20T07:59:44.954Z,27.22
2023-06-20T08:02:13.350Z,28.51
2023-06-20T08:04:41.626Z,29.02
2023-06-20T08:07:10.910Z,28.63
2023-06-20T08:09:39.087Z,28.36
2023-06-20T08:12:08.005Z,27.68
2023-06-20T08:14:38.283Z,27.37
2023-06-20T08:17:06.703Z,26.78
2023-06-20T08:19:34.997Z,26.67
2023-06-20T08:22:03.121Z,26.75
2023-06-20T08:24:31.271Z,26.29
2023-06-20T08:26:59.490Z,26.68
2023-06-20T08:29:27.658Z,26.79
2023-06-20T08:31:55.938Z,27.15
2023-06-20T08:34:24.089Z,27.24
2023-06-20T08:36:53.093Z,26.99
2023-06-20T08:39:22.395Z,27.05
2023-06-20T08:41:51.722Z,27.16
2023-06-20T08:44:21.139Z,26.92
2023-06-20T08:46:58.144Z,26.77
2023-06-20T08:49:26.507Z,26.86
2023-06-20T08:51:57.497Z,27.26
2023-06-20T08:54:31.183Z,27.61
2023-06-20T08:57:01.014Z,27.98
2023-06-20T08:59:29.383Z,27.33
2023-06-20T09:01:57.627Z,26.86
2023-06-20T09:04:29.270Z,27.09
2023-06-20T09:06:57.709Z,27.17
2023-06-20T09:09:26.593Z,27.58
2023-06-20T09:12:00.135Z,27.99
2023-06-20T09:14:30.284Z,28.06
2023-06-20T09:16:58.582Z,27.84
2023-06-20T09:19:26.750Z,28.09
2023-06-20T09:22:12.988Z,28.29
2023-06-20T09:24:46.673Z,26.91
2023-06-20T09:27:15.310Z,27.67
2023-06-20T09:29:54.013Z,28.13
2023-06-20T09:32:24.498Z,28.05
2023-06-20T09:34:54.437Z,27.98
2023-06-20T09:37:24.064Z,28.22
2023-06-20T09:39:52.016Z,28.47
2023-06-20T09:42:21.006Z,28.95
2023-06-20T09:44:48.949Z,28.90
2023-06-20T09:47:17.225Z,29.32
2023-06-20T09:49:45.826Z,29.33
2023-06-20T09:52:16.239Z,28.77
2023-06-20T09:55:02.516Z,28.69
2023-06-20T09:57:37.887Z,28.78
2023-06-20T10:00:12.970Z,28.67
2023-06-20T10:02:45.133Z,28.75
2023-06-20T10:05:16.118Z,28.68
2023-06-20T10:07:49.092Z,29.08
2023-06-20T10:10:18.783Z,29.33
2023-06-20T10:12:48.563Z,28.87
2023-06-20T10:15:17.598Z,28.84
2023-06-20T10:17:47.922Z,28.22
2023-06-20T10:20:28.453Z,28.53
2023-06-20T10:23:03.265Z,28.69
2023-06-20T10:25:31.407Z,29.08
2023-06-20T10:28:10.913Z,29.37
2023-06-20T10:30:50.301Z,28.81
2023-06-20T10:33:38.767Z,28.61
2023-06-20T10:36:10.932Z,28.87
2023-06-20T10:39:00.712Z,28.64
2023-06-20T10:41:30.018Z,29.11
2023-06-20T10:43:59.866Z,29.23
2023-06-20T10:46:36.926Z,28.87
2023-06-20T10:49:05.918Z,29.05
2023-06-20T10:51:45.084Z,29.13
2023-06-20T10:54:14.544Z,29.50
2023-06-20T10:56:45.224Z,29.33
2023-06-20T10:59:15.372Z,29.22
2023-06-20T11:01:43.525Z,28.94
2023-06-20T11:04:13.391Z,28.74
2023-06-20T11:06:42.570Z,28.40
2023-06-20T11:09:24.470Z,28.71
2023-06-20T11:11:53.019Z,28.88
2023-06-20T11:14:23.040Z,29.12
2023-06-20T11:16:52.858Z,29.47
2023-06-20T11:19:36.772Z,30.13
2023-06-20T11:22:05.963Z,29.76
2023-06-20T11:24:36.982Z,29.63
2023-06-20T11:27:16.298Z,30.23
2023-06-20T11:29:46.877Z,30.18
2023-06-20T11:32:15.361Z,29.98
2023-06-20T11:35:00.697Z,30.30
2023-06-20T11:37:29.570Z,30.52
2023-06-20T11:39:57.780Z,30.40
2023-06-20T11:42:26.048Z,30.06
2023-06-20T11:44:54.012Z,29.51
2023-06-20T11:47:22.384Z,29.91
2023-06-20T11:49:50.511Z,30.15
2023-06-20T11:52:30.649Z,29.88
2023-06-20T11:55:00.214Z,29.77
2023-06-20T11:57:30.203Z,29.80
2023-06-20T12:00:15.783Z,29.70
2023-06-20T12:02:44.358Z,29.46
2023-06-20T12:05:17.201Z,29.40
2023-06-20T12:07:54.729Z,29.05
2023-06-20T12:10:25.766Z,28.96
2023-06-20T12:12:54.105Z,29.32
2023-06-20T12:15:22.916Z,29.57
2023-06-20T12:17:51.154Z,29.49
2023-06-20T12:20:34.000Z,29.57
2023-06-20T12:23:04.084Z,29.70
2023-06-20T12:25:33.327Z,29.71
2023-06-20T12:28:04.503Z,29.87
2023-06-20T12:30:32.603Z,29.66
2023-06-20T12:33:01.337Z,29.51
2023-06-20T12:35:33.096Z,29.60
2023-06-20T12:38:01.337Z,29.82
2023-06-20T12:40:29.309Z,29.63
2023-06-20T12:42:57.496Z,29.60
2023-06-20T12:45:25.505Z,29.82
2023-06-20T12:47:53.569Z,30.05
2023-06-20T12:50:22.010Z,30.16
2023-06-20T12:52:50.606Z,30.49
2023-06-20T12:55:19.004Z,30.88
2023-06-20T12:57:47.476Z,30.80
2023-06-20T13:00:16.496Z,30.64
2023-06-20T13:02:44.605Z,30.64
2023-06-20T13:05:12.848Z,30.83
2023-06-20T13:07:42.032Z,30.44
2023-06-20T13:10:10.779Z,30.52
2023-06-20T13:12:40.123Z,30.85
2023-06-20T13:15:09.165Z,30.76
2023-06-20T13:17:38.648Z,30.78
2023-06-20T13:20:07.789Z,30.81
2023-06-20T13:22:35.868Z,30.81
2023-06-20T13:25:04.826Z,30.87
2023-06-20T13:27:33.660Z,30.73
2023-06-20T13:30:01.779Z,30.77
2023-06-20T13:32:30.179Z,30.67
2023-06-20T13:34:58.493Z,30.61
2023-06-20T13:37:26.645Z,30.78
2023-06-20T13:39:54.639Z,30.61
2023-06-20T13:42:22.699Z,30.85
2023-06-20T13:44:50.973Z,30.78
2023-06-20T13:47:19.387Z,30.87
2023-06-20T13:49:47.581Z,30.96
2023-06-20T13:52:15.631Z,30.70
2023-06-20T13:54:43.906Z,30.59
2023-06-20T13:57:12.026Z,31.01
2023-06-20T13:59:42.143Z,31.18
2023-06-20T14:02:11.969Z,31.10
2023-06-20T14:04:40.335Z,31.10
2023-06-20T14:07:08.526Z,30.96
2023-06-20T14:09:37.012Z,31.33
2023-06-20T14:12:09.008Z,31.46
2023-06-20T14:14:37.112Z,31.51
2023-06-20T14:17:05.701Z,31.54
2023-06-20T14:19:35.559Z,31.25
2023-06-20T14:22:04.005Z,31.02
2023-06-20T14:24:32.963Z,31.29
2023-06-20T14:27:01.616Z,31.56
2023-06-20T14:29:29.967Z,31.72
2023-06-20T14:31:58.291Z,31.22
2023-06-20T14:34:27.244Z,31.11
2023-06-20T14:36:58.146Z,31.21
2023-06-20T14:39:28.145Z,31.40
2023-06-20T14:41:56.506Z,31.50
2023-06-20T14:44:25.177Z,31.67
2023-06-20T14:46:53.702Z,32.21
2023-06-20T14:49:24.435Z,32.62
2023-06-20T14:51:53.271Z,32.90
2023-06-20T14:54:21.784Z,32.57
2023-06-20T14:56:50.450Z,32.43
2023-06-20T14:59:18.812Z,32.11
2023-06-20T15:01:47.383Z,31.80
2023-06-20T15:04:18.873Z,31.23
2023-06-20T15:06:48.085Z,30.84
2023-06-20T15:09:17.146Z,30.83
2023-06-20T15:11:45.657Z,30.73
2023-06-20T15:14:21.128Z,30.55
2023-06-20T15:16:50.925Z,30.52
2023-06-20T15:19:19.309Z,30.50
2023-06-20T15:21:47.490Z,30.35
2023-06-20T15:24:15.618Z,30.16
2023-06-20T15:26:43.653Z,30.11
2023-06-20T15:29:13.636Z,29.98
2023-06-20T15:31:42.422Z,29.87
2023-06-20T15:34:13.025Z,29.81
2023-06-20T15:36:41.185Z,29.70
2023-06-20T15:39:09.256Z,29.57
2023-06-20T15:41:37.299Z,29.49
2023-06-20T15:44:05.673Z,29.43
2023-06-20T15:46:44.440Z,29.36
2023-06-20T15:49:21.223Z,29.36
2023-06-20T15:51:49.407Z,29.22
2023-06-20T15:54:17.416Z,29.20
2023-06-20T15:56:45.522Z,29.18
2023-06-20T15:59:13.924Z,29.09
2023-06-20T16:01:42.205Z,29.01
2023-06-20T16:04:10.922Z,28.96
2023-06-20T16:06:39.121Z,28.88
2023-06-20T16:09:07.353Z,28.87
2023-06-20T16:11:36.012Z,28.82
2023-06-20T16:14:06.726Z,28.82
2023-06-20T16:16:41.914Z,28.81
2023-06-20T16:19:13.321Z,28.79
2023-06-20T16:21:41.846Z,28.63
2023-06-20T16:24:10.526Z,27.37
2023-06-20T16:26:40.117Z,25.62
2023-06-20T16:29:09.701Z,24.35
2023-06-20T16:31:40.253Z,23.80
2023-06-20T16:34:08.584Z,23.33
2023-06-20T16:36:36.786Z,22.88
2023-06-20T16:39:04.885Z,22.44
2023-06-20T16:41:33.041Z,22.20
2023-06-20T16:44:01.141Z,22.45
2023-06-20T16:46:29.421Z,22.43
2023-06-20T16:49:06.812Z,22.63
2023-06-20T16:51:35.668Z,22.62
2023-06-20T16:54:04.463Z,22.85
2023-06-20T16:56:52.047Z,22.63
2023-06-20T16:59:23.959Z,22.80
2023-06-20T17:01:52.444Z,22.75
2023-06-20T17:04:23.411Z,22.61
2023-06-20T17:06:52.078Z,22.41
2023-06-20T17:09:24.606Z,22.61
2023-06-20T17:11:52.776Z,22.59
2023-06-20T17:14:21.172Z,22.47
2023-06-20T17:16:49.965Z,22.41
2023-06-20T17:19:18.565Z,22.28
2023-06-20T17:21:52.501Z,21.82
2023-06-20T17:24:30.982Z,21.69
2023-06-20T17:26:59.429Z,21.41
2023-06-20T17:29:27.632Z,21.51
2023-06-20T17:31:59.358Z,21.59
2023-06-20T17:34:27.689Z,21.42
2023-06-20T17:36:56.195Z,21.25
2023-06-20T17:39:24.651Z,21.06
2023-06-20T17:41:52.820Z,20.94
2023-06-20T17:44:21.142Z,21.04
2023-06-20T17:46:56.019Z,21.03
2023-06-20T17:49:25.333Z,21.03
2023-06-20T17:51:55.803Z,21.01
2023-06-20T17:54:24.740Z,21.04
2023-06-20T17:56:53.276Z,21.39
2023-06-20T17:59:21.820Z,21.78
2023-06-20T18:01:50.831Z,22.17
2023-06-20T18:04:19.279Z,22.37
2023-06-20T18:06:47.623Z,22.34
2023-06-20T18:09:16.596Z,22.20
2023-06-20T18:11:46.275Z,22.27
2023-06-20T18:14:16.884Z,22.38
2023-06-20T18:16:45.602Z,22.43
2023-06-20T18:19:16.805Z,22.51
2023-06-20T18:21:46.493Z,22.43
2023-06-20T18:24:15.070Z,22.62
2023-06-20T18:26:43.735Z,22.92
2023-06-20T18:29:12.684Z,22.99
2023-06-20T18:31:41.048Z,23.17
2023-06-20T18:34:09.658Z,23.23
2023-06-20T18:36:37.695Z,23.40
2023-06-20T18:39:05.870Z,23.24
2023-06-20T18:41:34.111Z,23.23
2023-06-20T18:44:10.928Z,23.30
2023-06-20T18:46:49.357Z,23.24
2023-06-20T18:49:24.744Z,22.37
2023-06-20T18:51:55.863Z,21.93
2023-06-20T18:54:24.289Z,21.38
2023-06-20T18:56:52.442Z,21.15
2023-06-20T18:59:20.786Z,21.14
2023-06-20T19:01:54.225Z,21.20
2023-06-20T19:04:22.993Z,21.07
2023-06-20T19:06:53.145Z,21.07
2023-06-20T19:09:30.083Z,20.89
2023-06-20T19:11:59.307Z,20.79
2023-06-20T19:14:27.534Z,20.73
2023-06-20T19:16:58.237Z,20.68
2023-06-20T19:19:26.721Z,20.62
2023-06-20T19:21:55.377Z,20.55
2023-06-20T19:24:24.148Z,20.52
2023-06-20T19:26:52.574Z,20.57
2023-06-20T19:29:21.466Z,20.59
2023-06-20T19:31:49.914Z,20.61
2023-06-20T19:34:18.783Z,20.65
2023-06-20T19:36:48.498Z,20.59
2023-06-20T19:39:20.097Z,20.79
2023-06-20T19:41:48.985Z,21.54
2023-06-20T19:44:18.825Z,22.00
2023-06-20T19:46:47.444Z,22.21
2023-06-20T19:49:15.989Z,22.59
2023-06-20T19:51:46.151Z,23.24
2023-06-20T19:54:14.405Z,23.50
2023-06-20T19:56:43.092Z,23.65
2023-06-20T19:59:11.129Z,23.86
2023-06-20T20:01:40.646Z,23.96
2023-06-20T20:04:08.897Z,24.03
2023-06-20T20:06:36.980Z,23.13
2023-06-20T20:09:06.129Z,23.04
2023-06-20T20:11:36.614Z,22.97
2023-06-20T20:14:04.814Z,22.35
2023-06-20T20:16:32.907Z,21.96
2023-06-20T20:19:04.334Z,22.16
2023-06-20T20:21:35.289Z,22.75
2023-06-20T20:24:03.415Z,23.17
2023-06-20T20:26:31.419Z,23.33
2023-06-20T20:28:59.320Z,23.20
2023-06-20T20:31:27.407Z,23.35
2023-06-20T20:33:55.445Z,23.54
2023-06-20T20:36:23.423Z,23.65
2023-06-20T20:38:51.669Z,23.83
2023-06-20T20:41:21.032Z,23.65
2023-06-20T20:43:49.419Z,22.88
2023-06-20T20:46:20.997Z,22.92
2023-06-20T20:48:53.114Z,22.83
2023-06-20T20:51:21.695Z,22.99
2023-06-20T20:53:49.601Z,22.99
2023-06-20T20:56:17.738Z,23.30
2023-06-20T20:58:45.665Z,23.07
2023-06-20T21:01:13.869Z,23.20
2023-06-20T21:03:42.396Z,23.07
2023-06-20T21:06:12.388Z,22.73
2023-06-20T21:08:40.621Z,22.79
2023-06-20T21:11:08.656Z,22.72
2023-06-20T21:13:36.571Z,22.56
2023-06-20T21:16:04.649Z,22.79
2023-06-20T21:18:32.643Z,23.04
2023-06-20T21:21:00.559Z,23.31
2023-06-20T21:23:28.439Z,23.27
2023-06-20T21:25:56.507Z,23.00
2023-06-20T21:28:25.805Z,23.24
2023-06-20T21:30:54.015Z,23.33
2023-06-20T21:33:22.071Z,23.27
2023-06-20T21:35:50.348Z,23.34
2023-06-20T21:38:18.315Z,23.28
2023-06-20T21:40:47.072Z,22.83
2023-06-20T21:43:14.935Z,22.27
2023-06-20T21:45:43.031Z,21.99
2023-06-20T21:48:11.993Z,21.90
2023-06-20T21:50:40.520Z,21.83
2023-06-20T21:53:10.727Z,21.59
2023-06-20T21:55:40.866Z,21.27
2023-06-20T21:58:08.936Z,21.17
2023-06-20T22:00:36.998Z,21.18
2023-06-20T22:03:05.812Z,21.06
2023-06-20T22:05:33.822Z,20.86
2023-06-20T22:08:01.795Z,20.87
2023-06-20T22:10:30.185Z,20.89
2023-06-20T22:12:59.599Z,20.93
2023-06-20T22:15:28.002Z,20.97
2023-06-20T22:17:56.541Z,21.21
2023-06-20T22:20:25.138Z,21.69
2023-06-20T22:22:53.470Z,21.72
2023-06-20T22:25:21.558Z,21.65
2023-06-20T22:27:49.593Z,21.45
2023-06-20T22:30:17.550Z,21.41
2023-06-20T22:32:45.503Z,21.03
2023-06-20T22:35:13.559Z,20.66
2023-06-20T22:37:42.385Z,20.41
2023-06-20T22:40:10.794Z,20.28
2023-06-20T22:42:39.047Z,20.08
2023-06-20T22:45:07.623Z,20.00
2023-06-20T22:47:36.486Z,19.94
2023-06-20T22:50:04.830Z,19.89
2023-06-20T22:52:32.866Z,19.83
2023-06-20T22:55:00.881Z,19.83
2023-06-20T22:57:28.759Z,19.79
2023-06-20T22:59:56.780Z,19.73
2023-06-20T23:02:25.181Z,19.70
2023-06-20T23:04:53.233Z,19.70
2023-06-20T23:07:21.199Z,19.65
2023-06-20T23:09:49.351Z,19.59
2023-06-20T23:12:17.291Z,19.59
2023-06-20T23:14:45.261Z,19.56
2023-06-20T23:17:13.196Z,19.55
2023-06-20T23:19:41.052Z,19.54
2023-06-20T23:22:09.123Z,19.49
2023-06-20T23:24:37.078Z,19.49
2023-06-20T23:27:05.383Z,19.45
2023-06-20T23:29:33.366Z,19.42
2023-06-20T23:32:01.195Z,19.36
2023-06-20T23:34:30.750Z,19.34
2023-06-20T23:36:58.905Z,19.31
2023-06-20T23:39:26.883Z,19.29
2023-06-20T23:41:55.056Z,19.27
2023-06-20T23:44:23.206Z,19.24
2023-06-20T23:46:52.447Z,19.19
2023-06-20T23:49:20.932Z,19.21
2023-06-20T23:51:48.968Z,19.15
2023-06-20T23:54:16.995Z,19.12
2023-06-20T23:56:44.932Z,19.11
2023-06-20T23:59:14.797Z,19.08
